createdAt,value
2022-12-11T00:00:18.417Z,3.78
2022-12-11T00:02:46.065Z,3.85
2022-12-11T00:05:13.613Z,3.87
2022-12-11T00:07:43.008Z,3.22
2022-12-11T00:10:10.730Z,3.33
2022-12-11T00:12:38.157Z,3.60
2022-12-11T00:15:06.249Z,2.92
2022-12-11T00:17:33.735Z,3.30
2022-12-11T00:20:01.271Z,3.08
2022-12-11T00:22:30.928Z,3.45
2022-12-11T00:24:59.790Z,3.33
2022-12-11T00:27:27.267Z,3.30
2022-12-11T00:29:54.756Z,3.20
2022-12-11T00:32:22.211Z,3.58
2022-12-11T00:34:49.714Z,3.17
2022-12-11T00:37:17.305Z,3.47
2022-12-11T00:39:45.446Z,3.40
2022-12-11T00:42:14.215Z,3.50
2022-12-11T00:44:41.679Z,4.18
2022-12-11T00:47:09.133Z,3.05
2022-12-11T00:49:36.554Z,3.53
2022-12-11T00:52:04.125Z,2.90
2022-12-11T00:54:31.597Z,2.77
2022-12-11T00:56:59.089Z,3.90
2022-12-11T00:59:29.170Z,4.05
2022-12-11T01:01:56.669Z,3.70
2022-12-11T01:04:24.513Z,3.80
2022-12-11T01:06:54.379Z,3.73
2022-12-11T01:09:38.681Z,3.83
2022-12-11T01:12:06.407Z,2.72
2022-12-11T01:14:35.187Z,3.30
2022-12-11T01:17:02.686Z,3.42
2022-12-11T01:19:30.322Z,3.40
2022-12-11T01:21:57.803Z,3.45
2022-12-11T01:24:25.264Z,3.17
2022-12-11T01:26:52.734Z,2.97
2022-12-11T01:29:20.216Z,3.47
2022-12-11T01:31:49.047Z,4.23
2022-12-11T01:34:16.500Z,3.28
2022-12-11T01:36:44.043Z,3.70
2022-12-11T01:39:11.660Z,4.03
2022-12-11T01:41:39.208Z,3.40
2022-12-11T01:44:09.209Z,3.60
2022-12-11T01:46:37.665Z,4.35
2022-12-11T01:49:10.034Z,3.63
2022-12-11T01:51:41.358Z,3.15
2022-12-11T01:54:12.286Z,4.05
2022-12-11T01:56:42.785Z,3.37
2022-12-11T01:59:10.933Z,3.88
2022-12-11T02:01:43.175Z,2.60
2022-12-11T02:04:13.062Z,3.25
2022-12-11T02:06:42.952Z,2.50
2022-12-11T02:09:13.319Z,3.10
2022-12-11T02:11:52.754Z,3.75
2022-12-11T02:14:29.779Z,3.53
2022-12-11T02:17:05.407Z,4.00
2022-12-11T02:19:52.899Z,3.10
2022-12-11T02:22:29.714Z,3.20
2022-12-11T02:25:10.679Z,3.35
2022-12-11T02:27:45.075Z,3.20
2022-12-11T02:30:16.667Z,3.90
2022-12-11T02:32:48.701Z,2.75
2022-12-11T02:35:21.340Z,3.03
2022-12-11T02:37:52.575Z,3.15
2022-12-11T02:40:25.751Z,3.67
2022-12-11T02:42:55.965Z,3.03
2022-12-11T02:45:27.228Z,3.30
2022-12-11T02:47:54.832Z,3.60
2022-12-11T02:50:24.381Z,3.33
2022-12-11T02:52:55.661Z,3.90
2022-12-11T02:55:25.204Z,2.95
2022-12-11T02:57:57.538Z,3.70
2022-12-11T03:00:26.367Z,4.17
2022-12-11T03:02:54.190Z,4.35
2022-12-11T03:05:21.956Z,3.58
2022-12-11T03:07:49.718Z,3.58
2022-12-11T03:10:19.852Z,3.28
2022-12-11T03:12:53.608Z,3.57
2022-12-11T03:15:23.929Z,3.78
2022-12-11T03:18:05.013Z,3.40
2022-12-11T03:20:39.362Z,3.38
2022-12-11T03:23:16.889Z,3.90
2022-12-11T03:25:50.947Z,3.87
2022-12-11T03:28:22.334Z,3.72
2022-12-11T03:30:52.359Z,3.90
2022-12-11T03:33:26.469Z,3.50
2022-12-11T03:35:57.580Z,3.10
2022-12-11T03:38:32.158Z,3.67
2022-12-11T03:41:03.251Z,4.20
2022-12-11T03:43:32.684Z,3.95
2022-12-11T03:46:01.658Z,3.75
2022-12-11T03:48:35.205Z,3.30
2022-12-11T03:51:06.075Z,2.50
2022-12-11T03:53:35.405Z,3.50
2022-12-11T03:56:05.091Z,4.75
2022-12-11T03:58:33.180Z,4.00
2022-12-11T04:01:00.651Z,3.88
2022-12-11T04:03:29.704Z,3.40
2022-12-11T04:05:57.356Z,3.20
2022-12-11T04:08:24.948Z,3.25
2022-12-11T04:11:13.875Z,3.15
2022-12-11T04:13:42.368Z,3.90
2022-12-11T04:16:09.387Z,3.37
2022-12-11T04:18:55.943Z,3.05
2022-12-11T04:21:40.130Z,3.83
2022-12-11T04:24:17.205Z,3.15
2022-12-11T04:26:45.856Z,3.13
2022-12-11T04:29:14.128Z,3.90
2022-12-11T04:31:41.788Z,3.95
2022-12-11T04:34:10.629Z,3.55
2022-12-11T04:36:38.542Z,3.03
2022-12-11T04:39:06.904Z,3.47
2022-12-11T04:41:35.040Z,3.37
2022-12-11T04:44:02.551Z,2.85
2022-12-11T04:46:30.138Z,3.25
2022-12-11T04:48:58.112Z,3.10
2022-12-11T04:51:27.908Z,3.28
2022-12-11T04:53:55.957Z,3.73
2022-12-11T04:56:23.688Z,4.13
2022-12-11T04:58:51.175Z,4.57
2022-12-11T05:01:21.100Z,4.10
2022-12-11T05:03:48.907Z,3.40
2022-12-11T05:06:16.517Z,4.37
2022-12-11T05:08:46.297Z,4.35
2022-12-11T05:11:15.718Z,5.35
2022-12-11T05:13:43.573Z,4.10
2022-12-11T05:16:13.641Z,2.97
2022-12-11T05:18:41.415Z,4.10
2022-12-11T05:21:11.330Z,5.38
2022-12-11T05:23:39.269Z,4.40
2022-12-11T05:26:12.457Z,4.57
2022-12-11T05:28:40.694Z,5.40
2022-12-11T05:31:12.619Z,4.77
2022-12-11T05:33:40.472Z,3.97
2022-12-11T05:36:09.050Z,4.18
2022-12-11T05:38:36.542Z,4.20
2022-12-11T05:41:06.198Z,5.28
2022-12-11T05:43:37.342Z,4.20
2022-12-11T05:46:09.064Z,4.30
2022-12-11T05:48:37.942Z,4.45
2022-12-11T05:51:06.419Z,4.35
2022-12-11T05:53:34.109Z,4.80
2022-12-11T05:56:06.305Z,5.03
2022-12-11T05:58:35.781Z,4.55
2022-12-11T06:01:03.541Z,4.68
2022-12-11T06:03:30.972Z,5.78
2022-12-11T06:05:58.418Z,5.20
2022-12-11T06:08:25.909Z,5.40
2022-12-11T06:10:53.443Z,4.43
2022-12-11T06:13:21.192Z,4.78
2022-12-11T06:15:50.088Z,5.85
2022-12-11T06:18:17.783Z,5.20
2022-12-11T06:20:45.613Z,5.67
2022-12-11T06:23:13.081Z,6.03
2022-12-11T06:25:41.226Z,5.15
2022-12-11T06:28:08.809Z,4.80
2022-12-11T06:30:38.658Z,4.78
2022-12-11T06:33:08.345Z,4.83
2022-12-11T06:35:41.671Z,6.07
2022-12-11T06:38:10.374Z,6.32
2022-12-11T06:40:38.093Z,5.10
2022-12-11T06:43:05.611Z,5.15
2022-12-11T06:45:33.270Z,5.97
2022-12-11T06:48:00.809Z,3.97
2022-12-11T06:50:29.738Z,5.50
2022-12-11T06:52:57.853Z,5.50
2022-12-11T06:55:25.300Z,5.20
2022-12-11T06:57:52.759Z,4.53
2022-12-11T07:00:20.429Z,5.80
2022-12-11T07:02:47.862Z,5.90
2022-12-11T07:05:15.294Z,5.00
2022-12-11T07:07:44.080Z,5.68
2022-12-11T07:10:11.797Z,4.93
2022-12-11T07:12:39.393Z,4.20
2022-12-11T07:15:07.985Z,5.25
2022-12-11T07:17:35.610Z,3.92
2022-12-11T07:20:03.718Z,4.13
2022-12-11T07:22:31.213Z,4.57
2022-12-11T07:24:59.988Z,4.28
2022-12-11T07:27:27.414Z,5.50
2022-12-11T07:29:55.429Z,4.68
2022-12-11T07:32:23.181Z,4.40
2022-12-11T07:34:52.077Z,4.47
2022-12-11T07:37:19.754Z,4.70
2022-12-11T07:39:48.842Z,5.55
2022-12-11T07:42:17.734Z,5.13
2022-12-11T07:44:45.169Z,4.63
2022-12-11T07:47:12.622Z,4.97
2022-12-11T07:49:40.074Z,4.38
2022-12-11T07:52:07.512Z,4.97
2022-12-11T07:54:34.924Z,4.18
2022-12-11T07:57:02.502Z,4.78
2022-12-11T07:59:31.339Z,4.07
2022-12-11T08:01:58.811Z,5.65
2022-12-11T08:04:26.291Z,3.78
2022-12-11T08:06:53.736Z,4.82
2022-12-11T08:09:22.527Z,5.45
2022-12-11T08:11:51.135Z,5.13
2022-12-11T08:14:18.748Z,4.30
2022-12-11T08:16:47.642Z,4.35
2022-12-11T08:19:15.642Z,3.65
2022-12-11T08:21:43.370Z,5.18
2022-12-11T08:24:11.019Z,4.27
2022-12-11T08:26:38.508Z,4.13
2022-12-11T08:29:06.059Z,4.72
2022-12-11T08:31:33.711Z,4.30
2022-12-11T08:34:02.494Z,4.30
2022-12-11T08:36:29.978Z,2.80
2022-12-11T08:38:58.046Z,5.03
2022-12-11T08:41:27.224Z,3.47
2022-12-11T08:43:55.694Z,2.63
2022-12-11T08:46:28.552Z,4.25
2022-12-11T08:48:56.932Z,4.43
2022-12-11T08:51:27.937Z,4.43
2022-12-11T08:53:56.112Z,2.78
2022-12-11T08:56:24.000Z,3.13
2022-12-11T08:58:51.960Z,4.80
2022-12-11T09:01:22.541Z,3.50
2022-12-11T09:03:50.634Z,4.63
2022-12-11T09:06:20.786Z,4.13
2022-12-11T09:08:52.931Z,2.33
2022-12-11T09:11:22.717Z,3.75
2022-12-11T09:13:50.469Z,2.80
2022-12-11T09:16:21.752Z,3.25
2022-12-11T09:18:51.093Z,4.03
2022-12-11T09:21:21.093Z,4.07
2022-12-11T09:23:50.833Z,4.38
2022-12-11T09:26:19.995Z,4.17
2022-12-11T09:28:47.533Z,5.40
2022-12-11T09:31:16.546Z,2.70
2022-12-11T09:33:44.831Z,4.72
2022-12-11T09:36:13.219Z,4.68
2022-12-11T09:38:43.187Z,3.63
2022-12-11T09:41:33.856Z,2.15
2022-12-11T09:44:07.621Z,3.22
2022-12-11T09:46:36.656Z,2.72
2022-12-11T09:49:12.238Z,3.28
2022-12-11T09:51:44.431Z,1.73
2022-12-11T09:54:15.032Z,3.42
2022-12-11T09:56:52.373Z,3.60
2022-12-11T09:59:27.499Z,2.38
2022-12-11T10:02:03.891Z,3.67
2022-12-11T10:04:43.322Z,3.27
2022-12-11T10:07:14.713Z,3.58
2022-12-11T10:09:50.364Z,2.38
2022-12-11T10:12:31.170Z,3.08
2022-12-11T10:15:15.664Z,3.28
2022-12-11T10:17:45.394Z,4.00
2022-12-11T10:20:21.529Z,2.90
2022-12-11T10:22:51.083Z,3.95
2022-12-11T10:25:22.639Z,3.10
2022-12-11T10:27:51.510Z,3.42
2022-12-11T10:30:25.958Z,3.23
2022-12-11T10:33:04.073Z,3.20
2022-12-11T10:35:37.224Z,3.65
2022-12-11T10:38:15.320Z,3.15
2022-12-11T10:40:45.495Z,3.75
2022-12-11T10:43:14.293Z,3.57
2022-12-11T10:45:51.451Z,3.67
2022-12-11T10:48:19.003Z,4.00
2022-12-11T10:50:57.935Z,3.95
2022-12-11T10:53:25.951Z,3.08
2022-12-11T10:55:54.736Z,3.67
2022-12-11T10:58:25.873Z,4.53
2022-12-11T11:01:04.960Z,3.60
2022-12-11T11:03:34.441Z,3.95
2022-12-11T11:06:07.586Z,4.78
2022-12-11T11:08:44.049Z,4.07
2022-12-11T11:11:29.386Z,4.65
2022-12-11T11:14:14.037Z,3.50
2022-12-11T11:16:43.466Z,3.88
2022-12-11T11:19:19.987Z,4.55
2022-12-11T11:21:51.012Z,3.90
2022-12-11T11:24:34.199Z,4.20
2022-12-11T11:27:13.261Z,3.92
2022-12-11T11:29:43.478Z,3.80
2022-12-11T11:32:18.590Z,3.80
2022-12-11T11:34:46.027Z,3.90
2022-12-11T11:37:25.237Z,3.25
2022-12-11T11:39:56.380Z,3.55
2022-12-11T11:42:39.592Z,3.42
2022-12-11T11:45:16.606Z,3.83
2022-12-11T11:47:53.776Z,2.87
2022-12-11T11:50:25.676Z,3.20
2022-12-11T11:53:03.177Z,3.28
2022-12-11T11:55:42.054Z,3.10
2022-12-11T11:58:16.189Z,3.65
2022-12-11T12:00:44.990Z,3.00
2022-12-11T12:03:15.994Z,2.53
2022-12-11T12:05:51.410Z,2.25
2022-12-11T12:08:31.170Z,2.15
2022-12-11T12:11:05.594Z,2.22
2022-12-11T12:13:49.409Z,2.80
2022-12-11T12:16:53.882Z,3.28
2022-12-11T12:19:24.357Z,2.10
2022-12-11T12:21:53.159Z,2.78
2022-12-11T12:24:30.545Z,1.58
2022-12-11T12:27:02.683Z,2.67
2022-12-11T12:29:45.060Z,1.92
2022-12-11T12:32:25.382Z,2.53
2022-12-11T12:35:05.061Z,2.45
2022-12-11T12:37:48.125Z,2.42
2022-12-11T12:40:21.796Z,2.53
2022-12-11T12:42:55.938Z,2.97
2022-12-11T12:45:29.639Z,2.25
2022-12-11T12:47:58.523Z,2.53
2022-12-11T12:50:35.678Z,2.95
2022-12-11T12:53:05.509Z,2.77
2022-12-11T12:55:34.809Z,2.83
2022-12-11T12:58:04.229Z,2.35
2022-12-11T13:00:35.474Z,3.08
2022-12-11T13:03:14.706Z,3.42
2022-12-11T13:05:44.236Z,2.97
2022-12-11T13:08:13.361Z,2.90
2022-12-11T13:10:43.257Z,3.88
2022-12-11T13:13:30.693Z,3.58
2022-12-11T13:16:07.766Z,3.45
2022-12-11T13:18:38.440Z,2.97
2022-12-11T13:21:26.968Z,3.38
2022-12-11T13:23:54.730Z,3.33
2022-12-11T13:26:29.128Z,3.50
2022-12-11T13:28:58.031Z,3.72
2022-12-11T13:31:36.184Z,3.20
2022-12-11T13:34:17.746Z,3.28
2022-12-11T13:36:49.941Z,3.13
2022-12-11T13:39:20.015Z,4.13
2022-12-11T13:41:51.316Z,3.03
2022-12-11T13:44:23.657Z,3.67
2022-12-11T13:46:53.826Z,3.17
2022-12-11T13:49:25.474Z,3.75
2022-12-11T13:51:54.995Z,4.05
2022-12-11T13:54:22.629Z,3.58
2022-12-11T13:57:02.464Z,3.20
2022-12-11T13:59:32.755Z,3.55
2022-12-11T14:02:05.158Z,4.03
2022-12-11T14:04:35.280Z,4.18
2022-12-11T14:07:06.854Z,3.47
2022-12-11T14:09:34.466Z,3.50
2022-12-11T14:12:01.926Z,2.40
2022-12-11T14:14:40.774Z,4.03
2022-12-11T14:17:14.913Z,3.78
2022-12-11T14:19:47.650Z,5.05
2022-12-11T14:22:19.942Z,4.80
2022-12-11T14:24:52.470Z,4.93
2022-12-11T14:27:21.031Z,5.03
2022-12-11T14:29:48.926Z,4.38
2022-12-11T14:32:21.900Z,4.97
2022-12-11T14:34:51.628Z,3.90
2022-12-11T14:37:22.036Z,3.88
2022-12-11T14:39:56.825Z,2.83
2022-12-11T14:42:26.444Z,3.40
2022-12-11T14:44:58.363Z,3.13
2022-12-11T14:47:29.941Z,3.73
2022-12-11T14:50:04.809Z,2.75
2022-12-11T14:52:37.613Z,2.13
2022-12-11T14:55:08.677Z,2.80
2022-12-11T14:57:36.976Z,3.85
2022-12-11T15:00:07.257Z,3.43
2022-12-11T15:02:36.356Z,3.17
2022-12-11T15:05:15.727Z,3.38
2022-12-11T15:07:44.895Z,2.40
2022-12-11T15:10:24.917Z,3.08
2022-12-11T15:12:52.582Z,3.10
2022-12-11T15:15:20.492Z,2.78
2022-12-11T15:17:52.900Z,2.88
2022-12-11T15:20:25.551Z,2.58
2022-12-11T15:22:53.768Z,2.58
2022-12-11T15:25:23.537Z,3.17
2022-12-11T15:27:53.853Z,3.40
2022-12-11T15:30:30.381Z,3.15
2022-12-11T15:33:21.825Z,3.50
2022-12-11T15:35:57.208Z,3.45
2022-12-11T15:38:36.863Z,2.83
2022-12-11T15:41:05.079Z,3.72
2022-12-11T15:43:36.977Z,3.47
2022-12-11T15:46:06.256Z,3.03
2022-12-11T15:48:34.100Z,3.13
2022-12-11T15:51:03.607Z,3.70
2022-12-11T15:53:31.071Z,3.55
2022-12-11T15:55:59.916Z,3.72
2022-12-11T15:58:28.125Z,4.45
2022-12-11T16:00:57.273Z,4.50
2022-12-11T16:03:25.299Z,3.83
2022-12-11T16:05:53.964Z,2.85
2022-12-11T16:08:24.732Z,4.13
2022-12-11T16:10:54.465Z,4.03
2022-12-11T16:13:22.292Z,4.35
2022-12-11T16:15:51.725Z,4.70
2022-12-11T16:18:22.069Z,4.97
2022-12-11T16:20:50.566Z,5.13
2022-12-11T16:23:18.713Z,6.25
2022-12-11T16:25:48.129Z,5.10
2022-12-11T16:28:18.286Z,4.90
2022-12-11T16:30:45.974Z,5.88
2022-12-11T16:33:14.515Z,4.75
2022-12-11T16:35:42.645Z,5.88
2022-12-11T16:38:11.082Z,5.50
2022-12-11T16:40:38.676Z,5.20
2022-12-11T16:43:08.257Z,3.72
2022-12-11T16:45:36.350Z,4.25
2022-12-11T16:48:04.899Z,4.65
2022-12-11T16:50:33.124Z,5.93
2022-12-11T16:53:00.681Z,6.23
2022-12-11T16:55:28.127Z,3.85
2022-12-11T16:57:55.543Z,3.80
2022-12-11T17:00:25.549Z,3.42
2022-12-11T17:02:53.207Z,4.43
2022-12-11T17:05:20.787Z,6.00
2022-12-11T17:07:48.334Z,6.30
2022-12-11T17:10:15.800Z,7.60
2022-12-11T17:12:43.307Z,6.00
2022-12-11T17:15:11.269Z,6.00
2022-12-11T17:17:40.206Z,5.67
2022-12-11T17:20:08.946Z,5.80
2022-12-11T17:22:37.088Z,5.25
2022-12-11T17:25:04.852Z,4.53
2022-12-11T17:27:32.375Z,4.75
2022-12-11T17:30:00.074Z,3.83
2022-12-11T17:32:27.570Z,4.40
2022-12-11T17:34:56.333Z,3.92
2022-12-11T17:37:23.782Z,3.55
2022-12-11T17:39:51.200Z,4.25
2022-12-11T17:42:18.629Z,4.70
2022-12-11T17:44:46.327Z,4.72
2022-12-11T17:47:13.781Z,3.33
2022-12-11T17:49:41.262Z,4.82
2022-12-11T17:52:10.033Z,4.40
2022-12-11T17:54:39.113Z,5.53
2022-12-11T17:57:07.333Z,7.38
2022-12-11T17:59:34.983Z,7.70
2022-12-11T18:02:02.585Z,6.28
2022-12-11T18:04:31.193Z,4.43
2022-12-11T18:06:58.772Z,3.30
2022-12-11T18:09:27.716Z,4.20
2022-12-11T18:11:55.285Z,4.22
2022-12-11T18:14:23.120Z,4.95
2022-12-11T18:16:52.043Z,5.65
2022-12-11T18:19:20.134Z,5.20
2022-12-11T18:21:47.619Z,5.40
2022-12-11T18:24:15.427Z,4.97
2022-12-11T18:26:44.387Z,5.72
2022-12-11T18:29:12.716Z,5.20
2022-12-11T18:31:42.914Z,5.20
2022-12-11T18:34:11.574Z,3.65
2022-12-11T18:36:40.580Z,3.25
2022-12-11T18:39:08.157Z,4.45
2022-12-11T18:41:35.828Z,4.75
2022-12-11T18:44:09.527Z,3.43
2022-12-11T18:46:39.345Z,4.72
2022-12-11T18:49:07.261Z,4.28
2022-12-11T18:51:35.276Z,5.13
2022-12-11T18:54:03.044Z,5.95
2022-12-11T18:56:30.647Z,5.00
2022-12-11T18:58:58.210Z,4.40
2022-12-11T19:01:29.045Z,4.63
2022-12-11T19:04:03.246Z,5.15
2022-12-11T19:06:36.526Z,5.72
2022-12-11T19:09:07.639Z,5.77
2022-12-11T19:11:36.412Z,5.07
2022-12-11T19:14:06.114Z,4.82
2022-12-11T19:16:37.137Z,5.78
2022-12-11T19:19:07.009Z,4.22
2022-12-11T19:21:35.306Z,4.60
2022-12-11T19:24:02.850Z,4.45
2022-12-11T19:26:30.656Z,4.72
2022-12-11T19:28:59.950Z,5.07
2022-12-11T19:31:30.248Z,4.50
2022-12-11T19:33:59.573Z,5.10
2022-12-11T19:36:28.910Z,6.60
2022-12-11T19:39:01.419Z,5.82
2022-12-11T19:41:30.247Z,5.43
2022-12-11T19:43:58.812Z,5.57
2022-12-11T19:46:27.071Z,4.97
2022-12-11T19:48:56.993Z,5.97
2022-12-11T19:51:29.532Z,5.47
2022-12-11T19:53:57.201Z,5.35
2022-12-11T19:56:25.539Z,4.30
2022-12-11T19:58:53.386Z,5.33
2022-12-11T20:01:24.977Z,7.95
2022-12-11T20:03:52.752Z,7.07
2022-12-11T20:06:20.449Z,5.25
2022-12-11T20:08:49.625Z,5.57
2022-12-11T20:11:19.644Z,6.03
2022-12-11T20:13:47.595Z,5.35
2022-12-11T20:16:16.262Z,5.82
2022-12-11T20:18:43.939Z,6.03
2022-12-11T20:21:14.824Z,5.25
2022-12-11T20:23:42.899Z,6.63
2022-12-11T20:26:13.686Z,5.32
2022-12-11T20:28:42.244Z,5.47
2022-12-11T20:31:18.262Z,5.57
2022-12-11T20:33:48.403Z,6.25
2022-12-11T20:36:17.482Z,5.63
2022-12-11T20:38:45.169Z,5.25
2022-12-11T20:41:15.595Z,6.15
2022-12-11T20:43:43.481Z,5.70
2022-12-11T20:46:13.637Z,4.93
2022-12-11T20:48:42.362Z,4.07
2022-12-11T20:51:11.990Z,4.57
2022-12-11T20:53:39.917Z,4.15
2022-12-11T20:56:12.885Z,4.05
2022-12-11T20:58:42.038Z,4.43
2022-12-11T21:01:15.657Z,2.73
2022-12-11T21:03:43.336Z,4.13
2022-12-11T21:06:18.467Z,3.47
2022-12-11T21:08:45.922Z,4.88
2022-12-11T21:11:13.453Z,3.30
2022-12-11T21:13:42.561Z,4.63
2022-12-11T21:16:11.452Z,4.65
2022-12-11T21:18:39.621Z,4.53
2022-12-11T21:21:07.550Z,3.60
2022-12-11T21:23:35.077Z,3.78
2022-12-11T21:26:03.099Z,3.73
2022-12-11T21:28:35.475Z,3.80
2022-12-11T21:31:06.788Z,4.10
2022-12-11T21:33:34.387Z,3.42
2022-12-11T21:36:01.935Z,3.67
2022-12-11T21:38:30.515Z,3.13
2022-12-11T21:40:58.496Z,3.20
2022-12-11T21:43:26.000Z,3.22
2022-12-11T21:46:01.962Z,4.40
2022-12-11T21:48:31.094Z,5.25
2022-12-11T21:51:06.705Z,4.03
2022-12-11T21:53:34.511Z,5.43
2022-12-11T21:56:05.962Z,2.38
2022-12-11T21:58:33.452Z,3.13
2022-12-11T22:01:00.987Z,4.18
2022-12-11T22:03:28.429Z,5.37
2022-12-11T22:05:57.213Z,3.42
2022-12-11T22:08:24.696Z,4.40
2022-12-11T22:10:52.206Z,3.03
2022-12-11T22:13:19.637Z,3.70
2022-12-11T22:15:47.080Z,2.47
2022-12-11T22:18:14.567Z,3.55
2022-12-11T22:20:42.227Z,3.65
2022-12-11T22:23:11.114Z,4.88
2022-12-11T22:25:38.733Z,2.92
2022-12-11T22:28:06.282Z,4.37
2022-12-11T22:30:33.758Z,3.70
2022-12-11T22:33:01.184Z,3.50
2022-12-11T22:35:28.635Z,3.88
2022-12-11T22:37:56.341Z,5.00
2022-12-11T22:40:26.547Z,3.87
2022-12-11T22:42:54.141Z,3.45
2022-12-11T22:45:21.734Z,4.53
2022-12-11T22:47:49.278Z,4.30
2022-12-11T22:50:16.896Z,4.32
2022-12-11T22:52:45.229Z,4.57
2022-12-11T22:55:12.951Z,4.50
2022-12-11T22:57:42.418Z,4.07
2022-12-11T23:00:13.330Z,4.88
2022-12-11T23:02:41.208Z,5.05
2022-12-11T23:05:11.215Z,4.13
2022-12-11T23:07:39.714Z,4.93
2022-12-11T23:10:09.735Z,4.05
2022-12-11T23:12:37.770Z,4.68
2022-12-11T23:15:07.885Z,4.38
2022-12-11T23:17:35.907Z,4.77
2022-12-11T23:20:05.612Z,4.28
2022-12-11T23:22:33.821Z,4.25
2022-12-11T23:25:01.691Z,3.58
2022-12-11T23:27:29.661Z,3.92
2022-12-11T23:29:57.205Z,3.80
2022-12-11T23:32:26.023Z,3.45
2022-12-11T23:34:53.486Z,5.50
2022-12-11T23:37:20.893Z,4.90
2022-12-11T23:39:48.319Z,4.80
2022-12-11T23:42:15.853Z,5.33
2022-12-11T23:44:43.503Z,4.28
2022-12-11T23:47:10.986Z,3.30
2022-12-11T23:49:39.780Z,3.13
2022-12-11T23:52:07.268Z,5.00
2022-12-11T23:54:34.801Z,4.47
2022-12-11T23:57:02.242Z,3.70
2022-12-11T23:59:29.679Z,4.72
